sensor_id;sensor_type;location;lat;lon;timestamp;P1;durP1;ratioP1;P2;durP2;ratioP2
37231;SDS011;23125;48.156;15.954;2023-08-12T00:00:30;2.45;;;1.80;;
37231;SDS011;23125;48.156;15.954;2023-08-12T00:02:56;1.90;;;1.63;;
37231;SDS011;23125;48.156;15.954;2023-08-12T00:05:22;3.00;;;1.70;;
37231;SDS011;23125;48.156;15.954;2023-08-12T00:07:48;2.85;;;2.03;;
37231;SDS011;23125;48.156;15.954;2023-08-12T00:10:14;1.98;;;1.50;;
37231;SDS011;23125;48.156;15.954;2023-08-12T00:12:40;4.93;;;1.90;;
37231;SDS011;23125;48.156;15.954;2023-08-12T00:15:06;2.50;;;1.60;;
37231;SDS011;23125;48.156;15.954;2023-08-12T00:17:33;3.35;;;1.80;;
37231;SDS011;23125;48.156;15.954;2023-08-12T00:20:01;2.55;;;2.03;;
37231;SDS011;23125;48.156;15.954;2023-08-12T00:22:30;2.15;;;1.52;;
37231;SDS011;23125;48.156;15.954;2023-08-12T00:24:56;3.10;;;1.65;;
37231;SDS011;23125;48.156;15.954;2023-08-12T00:27:22;2.42;;;1.45;;
37231;SDS011;23125;48.156;15.954;2023-08-12T00:29:48;2.42;;;1.58;;
37231;SDS011;23125;48.156;15.954;2023-08-12T00:32:14;2.70;;;1.98;;
37231;SDS011;23125;48.156;15.954;2023-08-12T00:34:40;3.13;;;1.60;;
37231;SDS011;23125;48.156;15.954;2023-08-12T00:37:06;3.65;;;1.90;;
37231;SDS011;23125;48.156;15.954;2023-08-12T00:39:31;2.28;;;1.80;;
37231;SDS011;23125;48.156;15.954;2023-08-12T00:41:57;2.63;;;2.00;;
37231;SDS011;23125;48.156;15.954;2023-08-12T00:44:23;2.72;;;1.90;;
37231;SDS011;23125;48.156;15.954;2023-08-12T00:46:49;3.08;;;1.85;;
37231;SDS011;23125;48.156;15.954;2023-08-12T00:49:16;3.03;;;2.15;;
37231;SDS011;23125;48.156;15.954;2023-08-12T00:51:43;2.22;;;1.67;;
37231;SDS011;23125;48.156;15.954;2023-08-12T00:54:13;3.58;;;1.67;;
37231;SDS011;23125;48.156;15.954;2023-08-12T00:56:40;2.35;;;1.67;;
37231;SDS011;23125;48.156;15.954;2023-08-12T00:59:07;3.65;;;1.80;;
37231;SDS011;23125;48.156;15.954;2023-08-12T01:01:40;3.15;;;1.80;;
37231;SDS011;23125;48.156;15.954;2023-08-12T01:04:07;3.22;;;2.05;;
37231;SDS011;23125;48.156;15.954;2023-08-12T01:06:33;4.38;;;1.98;;
37231;SDS011;23125;48.156;15.954;2023-08-12T01:08:59;2.13;;;1.73;;
37231;SDS011;23125;48.156;15.954;2023-08-12T01:11:47;2.60;;;1.73;;
37231;SDS011;23125;48.156;15.954;2023-08-12T01:14:31;4.75;;;1.88;;
37231;SDS011;23125;48.156;15.954;2023-08-12T01:17:17;3.17;;;2.15;;
37231;SDS011;23125;48.156;15.954;2023-08-12T01:19:43;2.78;;;1.88;;
37231;SDS011;23125;48.156;15.954;2023-08-12T01:22:13;2.20;;;1.67;;
37231;SDS011;23125;48.156;15.954;2023-08-12T01:24:42;2.63;;;1.90;;
37231;SDS011;23125;48.156;15.954;2023-08-12T01:27:10;3.60;;;2.10;;
37231;SDS011;23125;48.156;15.954;2023-08-12T01:29:48;3.50;;;1.83;;
37231;SDS011;23125;48.156;15.954;2023-08-12T01:32:36;3.80;;;2.25;;
37231;SDS011;23125;48.156;15.954;2023-08-12T01:35:11;3.35;;;1.73;;
37231;SDS011;23125;48.156;15.954;2023-08-12T01:37:43;3.50;;;1.70;;
37231;SDS011;23125;48.156;15.954;2023-08-12T01:40:10;2.35;;;1.90;;
37231;SDS011;23125;48.156;15.954;2023-08-12T01:42:38;6.00;;;2.00;;
37231;SDS011;23125;48.156;15.954;2023-08-12T01:45:05;2.47;;;1.73;;
37231;SDS011;23125;48.156;15.954;2023-08-12T01:47:32;3.63;;;2.13;;
37231;SDS011;23125;48.156;15.954;2023-08-12T01:49:58;5.10;;;1.73;;
37231;SDS011;23125;48.156;15.954;2023-08-12T01:52:24;2.90;;;1.92;;
37231;SDS011;23125;48.156;15.954;2023-08-12T01:54:51;2.63;;;1.80;;
37231;SDS011;23125;48.156;15.954;2023-08-12T01:57:17;3.90;;;2.05;;
37231;SDS011;23125;48.156;15.954;2023-08-12T01:59:43;2.33;;;1.77;;
37231;SDS011;23125;48.156;15.954;2023-08-12T02:02:09;3.25;;;1.77;;
37231;SDS011;23125;48.156;15.954;2023-08-12T02:04:35;3.53;;;1.83;;
37231;SDS011;23125;48.156;15.954;2023-08-12T02:07:03;2.80;;;1.90;;
37231;SDS011;23125;48.156;15.954;2023-08-12T02:09:29;3.33;;;1.92;;
37231;SDS011;23125;48.156;15.954;2023-08-12T02:11:56;4.18;;;2.63;;
37231;SDS011;23125;48.156;15.954;2023-08-12T02:14:23;2.38;;;1.83;;
37231;SDS011;23125;48.156;15.954;2023-08-12T02:16:48;2.75;;;2.13;;
37231;SDS011;23125;48.156;15.954;2023-08-12T02:19:14;2.35;;;2.00;;
37231;SDS011;23125;48.156;15.954;2023-08-12T02:21:41;2.45;;;1.70;;
37231;SDS011;23125;48.156;15.954;2023-08-12T02:24:07;3.03;;;1.77;;
37231;SDS011;23125;48.156;15.954;2023-08-12T02:26:33;3.17;;;2.15;;
37231;SDS011;23125;48.156;15.954;2023-08-12T02:28:59;2.80;;;2.35;;
37231;SDS011;23125;48.156;15.954;2023-08-12T02:31:25;2.35;;;1.98;;
37231;SDS011;23125;48.156;15.954;2023-08-12T02:33:51;3.90;;;2.80;;
37231;SDS011;23125;48.156;15.954;2023-08-12T02:36:17;2.53;;;2.20;;
37231;SDS011;23125;48.156;15.954;2023-08-12T02:38:43;2.60;;;2.20;;
37231;SDS011;23125;48.156;15.954;2023-08-12T02:41:09;3.40;;;2.38;;
37231;SDS011;23125;48.156;15.954;2023-08-12T02:43:35;2.65;;;2.10;;
37231;SDS011;23125;48.156;15.954;2023-08-12T02:46:00;2.85;;;1.90;;
37231;SDS011;23125;48.156;15.954;2023-08-12T02:48:26;3.75;;;2.58;;
37231;SDS011;23125;48.156;15.954;2023-08-12T02:50:52;3.63;;;2.03;;
37231;SDS011;23125;48.156;15.954;2023-08-12T02:53:18;2.97;;;2.63;;
37231;SDS011;23125;48.156;15.954;2023-08-12T02:55:46;3.00;;;2.47;;
37231;SDS011;23125;48.156;15.954;2023-08-12T02:58:12;2.58;;;1.80;;
37231;SDS011;23125;48.156;15.954;2023-08-12T03:00:41;2.90;;;2.28;;
37231;SDS011;23125;48.156;15.954;2023-08-12T03:03:10;2.67;;;2.20;;
37231;SDS011;23125;48.156;15.954;2023-08-12T03:05:36;3.53;;;2.13;;
37231;SDS011;23125;48.156;15.954;2023-08-12T03:08:02;2.50;;;2.08;;
37231;SDS011;23125;48.156;15.954;2023-08-12T03:10:29;2.88;;;2.03;;
37231;SDS011;23125;48.156;15.954;2023-08-12T03:12:55;2.47;;;1.88;;
37231;SDS011;23125;48.156;15.954;2023-08-12T03:15:21;4.32;;;2.20;;
37231;SDS011;23125;48.156;15.954;2023-08-12T03:17:47;4.93;;;2.00;;
37231;SDS011;23125;48.156;15.954;2023-08-12T03:20:13;2.20;;;1.95;;
37231;SDS011;23125;48.156;15.954;2023-08-12T03:22:39;4.65;;;2.50;;
37231;SDS011;23125;48.156;15.954;2023-08-12T03:25:05;3.05;;;2.28;;
37231;SDS011;23125;48.156;15.954;2023-08-12T03:27:31;3.25;;;2.25;;
37231;SDS011;23125;48.156;15.954;2023-08-12T03:29:57;3.50;;;2.20;;
37231;SDS011;23125;48.156;15.954;2023-08-12T03:32:24;3.38;;;2.30;;
37231;SDS011;23125;48.156;15.954;2023-08-12T03:34:51;4.63;;;2.05;;
37231;SDS011;23125;48.156;15.954;2023-08-12T03:37:17;2.65;;;2.20;;
37231;SDS011;23125;48.156;15.954;2023-08-12T03:39:43;3.25;;;2.08;;
37231;SDS011;23125;48.156;15.954;2023-08-12T03:42:09;2.60;;;2.25;;
37231;SDS011;23125;48.156;15.954;2023-08-12T03:44:35;4.05;;;2.58;;
37231;SDS011;23125;48.156;15.954;2023-08-12T03:47:01;3.88;;;2.30;;
37231;SDS011;23125;48.156;15.954;2023-08-12T03:49:27;4.03;;;2.35;;
37231;SDS011;23125;48.156;15.954;2023-08-12T03:51:53;3.25;;;2.08;;
37231;SDS011;23125;48.156;15.954;2023-08-12T03:54:19;3.28;;;2.42;;
37231;SDS011;23125;48.156;15.954;2023-08-12T03:56:45;3.45;;;2.40;;
37231;SDS011;23125;48.156;15.954;2023-08-12T03:59:10;3.40;;;2.33;;
37231;SDS011;23125;48.156;15.954;2023-08-12T04:01:39;2.47;;;2.10;;
37231;SDS011;23125;48.156;15.954;2023-08-12T04:04:05;2.50;;;2.25;;
37231;SDS011;23125;48.156;15.954;2023-08-12T04:06:31;4.20;;;2.35;;
37231;SDS011;23125;48.156;15.954;2023-08-12T04:08:57;2.55;;;1.88;;
37231;SDS011;23125;48.156;15.954;2023-08-12T04:11:23;2.95;;;2.47;;
37231;SDS011;23125;48.156;15.954;2023-08-12T04:13:49;2.25;;;2.05;;
37231;SDS011;23125;48.156;15.954;2023-08-12T04:16:15;2.85;;;2.17;;
37231;SDS011;23125;48.156;15.954;2023-08-12T04:18:41;2.70;;;2.33;;
37231;SDS011;23125;48.156;15.954;2023-08-12T04:21:07;2.22;;;2.00;;
37231;SDS011;23125;48.156;15.954;2023-08-12T04:23:33;3.05;;;2.25;;
37231;SDS011;23125;48.156;15.954;2023-08-12T04:25:59;2.92;;;2.25;;
37231;SDS011;23125;48.156;15.954;2023-08-12T04:28:25;3.00;;;2.05;;
37231;SDS011;23125;48.156;15.954;2023-08-12T04:30:51;3.70;;;2.45;;
37231;SDS011;23125;48.156;15.954;2023-08-12T04:33:17;3.80;;;2.42;;
37231;SDS011;23125;48.156;15.954;2023-08-12T04:35:45;3.35;;;2.55;;
37231;SDS011;23125;48.156;15.954;2023-08-12T04:38:11;3.35;;;2.40;;
37231;SDS011;23125;48.156;15.954;2023-08-12T04:40:39;3.30;;;2.63;;
37231;SDS011;23125;48.156;15.954;2023-08-12T04:43:06;4.22;;;2.55;;
37231;SDS011;23125;48.156;15.954;2023-08-12T04:45:32;3.58;;;2.38;;
37231;SDS011;23125;48.156;15.954;2023-08-12T04:47:58;2.97;;;2.45;;
37231;SDS011;23125;48.156;15.954;2023-08-12T04:50:24;3.97;;;2.15;;
37231;SDS011;23125;48.156;15.954;2023-08-12T04:52:50;3.78;;;2.42;;
37231;SDS011;23125;48.156;15.954;2023-08-12T04:55:16;4.70;;;2.63;;
37231;SDS011;23125;48.156;15.954;2023-08-12T04:57:42;2.83;;;2.35;;
37231;SDS011;23125;48.156;15.954;2023-08-12T05:00:08;3.88;;;2.50;;
37231;SDS011;23125;48.156;15.954;2023-08-12T05:02:35;5.20;;;3.03;;
37231;SDS011;23125;48.156;15.954;2023-08-12T05:05:00;4.72;;;2.95;;
37231;SDS011;23125;48.156;15.954;2023-08-12T05:07:26;3.10;;;2.40;;
37231;SDS011;23125;48.156;15.954;2023-08-12T05:09:53;3.08;;;2.28;;
37231;SDS011;23125;48.156;15.954;2023-08-12T05:12:18;3.53;;;2.70;;
37231;SDS011;23125;48.156;15.954;2023-08-12T05:14:44;4.18;;;2.58;;
37231;SDS011;23125;48.156;15.954;2023-08-12T05:17:10;3.55;;;2.72;;
37231;SDS011;23125;48.156;15.954;2023-08-12T05:19:36;3.17;;;2.58;;
37231;SDS011;23125;48.156;15.954;2023-08-12T05:22:02;2.88;;;2.35;;
37231;SDS011;23125;48.156;15.954;2023-08-12T05:24:28;4.78;;;2.67;;
37231;SDS011;23125;48.156;15.954;2023-08-12T05:26:54;4.03;;;2.58;;
37231;SDS011;23125;48.156;15.954;2023-08-12T05:29:20;5.40;;;2.72;;
37231;SDS011;23125;48.156;15.954;2023-08-12T05:31:45;3.75;;;2.63;;
37231;SDS011;23125;48.156;15.954;2023-08-12T05:34:11;4.15;;;2.78;;
37231;SDS011;23125;48.156;15.954;2023-08-12T05:36:37;3.97;;;2.47;;
37231;SDS011;23125;48.156;15.954;2023-08-12T05:39:03;3.50;;;2.63;;
37231;SDS011;23125;48.156;15.954;2023-08-12T05:41:29;3.85;;;2.33;;
37231;SDS011;23125;48.156;15.954;2023-08-12T05:43:55;3.92;;;2.10;;
37231;SDS011;23125;48.156;15.954;2023-08-12T05:46:21;3.83;;;2.38;;
37231;SDS011;23125;48.156;15.954;2023-08-12T05:48:46;2.80;;;2.03;;
37231;SDS011;23125;48.156;15.954;2023-08-12T05:51:12;6.43;;;2.17;;
37231;SDS011;23125;48.156;15.954;2023-08-12T05:53:38;3.10;;;1.90;;
37231;SDS011;23125;48.156;15.954;2023-08-12T05:56:04;2.28;;;1.88;;
37231;SDS011;23125;48.156;15.954;2023-08-12T05:58:30;2.97;;;2.20;;
37231;SDS011;23125;48.156;15.954;2023-08-12T06:00:56;2.20;;;1.70;;
37231;SDS011;23125;48.156;15.954;2023-08-12T06:03:22;4.05;;;2.40;;
37231;SDS011;23125;48.156;15.954;2023-08-12T06:05:48;2.90;;;2.45;;
37231;SDS011;23125;48.156;15.954;2023-08-12T06:08:14;2.53;;;1.88;;
37231;SDS011;23125;48.156;15.954;2023-08-12T06:10:40;4.78;;;2.13;;
37231;SDS011;23125;48.156;15.954;2023-08-12T06:13:07;3.95;;;2.00;;
37231;SDS011;23125;48.156;15.954;2023-08-12T06:15:34;2.83;;;1.80;;
37231;SDS011;23125;48.156;15.954;2023-08-12T06:18:00;5.20;;;2.50;;
37231;SDS011;23125;48.156;15.954;2023-08-12T06:20:27;2.60;;;1.85;;
37231;SDS011;23125;48.156;15.954;2023-08-12T06:22:53;1.63;;;1.52;;
37231;SDS011;23125;48.156;15.954;2023-08-12T06:25:19;3.75;;;2.15;;
37231;SDS011;23125;48.156;15.954;2023-08-12T06:27:45;2.30;;;2.10;;
37231;SDS011;23125;48.156;15.954;2023-08-12T06:30:13;2.95;;;2.72;;
37231;SDS011;23125;48.156;15.954;2023-08-12T06:32:39;3.65;;;3.20;;
37231;SDS011;23125;48.156;15.954;2023-08-12T06:35:05;2.88;;;2.50;;
37231;SDS011;23125;48.156;15.954;2023-08-12T06:37:32;2.25;;;2.05;;
37231;SDS011;23125;48.156;15.954;2023-08-12T06:39:58;2.63;;;2.42;;
37231;SDS011;23125;48.156;15.954;2023-08-12T06:42:24;2.88;;;2.67;;
37231;SDS011;23125;48.156;15.954;2023-08-12T06:44:54;4.22;;;3.83;;
37231;SDS011;23125;48.156;15.954;2023-08-12T06:47:21;6.72;;;6.35;;
37231;SDS011;23125;48.156;15.954;2023-08-12T06:49:47;3.88;;;2.95;;
37231;SDS011;23125;48.156;15.954;2023-08-12T06:52:13;2.30;;;2.10;;
37231;SDS011;23125;48.156;15.954;2023-08-12T06:54:39;2.20;;;2.03;;
37231;SDS011;23125;48.156;15.954;2023-08-12T06:57:05;3.65;;;3.35;;
37231;SDS011;23125;48.156;15.954;2023-08-12T06:59:31;8.18;;;7.78;;
37231;SDS011;23125;48.156;15.954;2023-08-12T07:01:57;3.60;;;3.30;;
37231;SDS011;23125;48.156;15.954;2023-08-12T07:04:22;4.00;;;1.70;;
37231;SDS011;23125;48.156;15.954;2023-08-12T07:06:48;2.88;;;1.60;;
37231;SDS011;23125;48.156;15.954;2023-08-12T07:09:14;2.20;;;1.60;;
37231;SDS011;23125;48.156;15.954;2023-08-12T07:11:40;2.00;;;1.58;;
37231;SDS011;23125;48.156;15.954;2023-08-12T07:14:06;2.10;;;1.70;;
37231;SDS011;23125;48.156;15.954;2023-08-12T07:16:32;2.75;;;1.60;;
37231;SDS011;23125;48.156;15.954;2023-08-12T07:18:58;1.60;;;1.40;;
37231;SDS011;23125;48.156;15.954;2023-08-12T07:21:24;3.33;;;1.90;;
37231;SDS011;23125;48.156;15.954;2023-08-12T07:23:50;1.65;;;1.50;;
37231;SDS011;23125;48.156;15.954;2023-08-12T07:26:16;2.15;;;1.70;;
37231;SDS011;23125;48.156;15.954;2023-08-12T07:28:42;2.60;;;1.70;;
37231;SDS011;23125;48.156;15.954;2023-08-12T07:31:08;2.08;;;1.70;;
37231;SDS011;23125;48.156;15.954;2023-08-12T07:33:34;1.95;;;1.50;;
37231;SDS011;23125;48.156;15.954;2023-08-12T07:36:00;1.80;;;1.70;;
37231;SDS011;23125;48.156;15.954;2023-08-12T07:38:27;1.75;;;1.55;;
37231;SDS011;23125;48.156;15.954;2023-08-12T07:40:53;2.38;;;1.52;;
37231;SDS011;23125;48.156;15.954;2023-08-12T07:43:20;1.90;;;1.50;;
37231;SDS011;23125;48.156;15.954;2023-08-12T07:45:50;1.42;;;1.33;;
37231;SDS011;23125;48.156;15.954;2023-08-12T07:48:20;2.05;;;1.38;;
37231;SDS011;23125;48.156;15.954;2023-08-12T07:50:46;1.40;;;1.30;;
37231;SDS011;23125;48.156;15.954;2023-08-12T07:53:20;2.95;;;1.27;;
37231;SDS011;23125;48.156;15.954;2023-08-12T07:55:45;1.40;;;1.30;;
37231;SDS011;23125;48.156;15.954;2023-08-12T07:58:11;1.85;;;1.55;;
37231;SDS011;23125;48.156;15.954;2023-08-12T08:00:38;1.10;;;1.00;;
37231;SDS011;23125;48.156;15.954;2023-08-12T08:03:04;1.77;;;1.35;;
37231;SDS011;23125;48.156;15.954;2023-08-12T08:05:30;2.28;;;1.10;;
37231;SDS011;23125;48.156;15.954;2023-08-12T08:07:56;1.40;;;1.20;;
37231;SDS011;23125;48.156;15.954;2023-08-12T08:10:22;1.98;;;1.38;;
37231;SDS011;23125;48.156;15.954;2023-08-12T08:12:48;1.45;;;1.30;;
37231;SDS011;23125;48.156;15.954;2023-08-12T08:15:14;1.40;;;1.30;;
37231;SDS011;23125;48.156;15.954;2023-08-12T08:17:40;2.03;;;1.40;;
37231;SDS011;23125;48.156;15.954;2023-08-12T08:20:06;2.17;;;1.30;;
37231;SDS011;23125;48.156;15.954;2023-08-12T08:22:32;2.08;;;1.50;;
37231;SDS011;23125;48.156;15.954;2023-08-12T08:24:58;1.88;;;1.30;;
37231;SDS011;23125;48.156;15.954;2023-08-12T08:27:24;1.33;;;1.23;;
37231;SDS011;23125;48.156;15.954;2023-08-12T08:29:51;2.00;;;1.42;;
37231;SDS011;23125;48.156;15.954;2023-08-12T08:32:16;2.63;;;1.40;;
37231;SDS011;23125;48.156;15.954;2023-08-12T08:34:42;2.33;;;1.33;;
37231;SDS011;23125;48.156;15.954;2023-08-12T08:37:08;2.03;;;1.50;;
37231;SDS011;23125;48.156;15.954;2023-08-12T08:39:35;1.85;;;1.52;;
37231;SDS011;23125;48.156;15.954;2023-08-12T08:42:01;1.92;;;1.40;;
37231;SDS011;23125;48.156;15.954;2023-08-12T08:44:30;1.67;;;1.42;;
37231;SDS011;23125;48.156;15.954;2023-08-12T08:46:58;1.77;;;0.95;;
37231;SDS011;23125;48.156;15.954;2023-08-12T08:49:25;2.70;;;1.70;;
37231;SDS011;23125;48.156;15.954;2023-08-12T08:51:52;1.58;;;1.40;;
37231;SDS011;23125;48.156;15.954;2023-08-12T08:54:21;1.83;;;1.48;;
37231;SDS011;23125;48.156;15.954;2023-08-12T08:59:14;2.78;;;1.52;;
37231;SDS011;23125;48.156;15.954;2023-08-12T09:01:40;2.00;;;1.40;;
37231;SDS011;23125;48.156;15.954;2023-08-12T09:06:36;1.65;;;1.55;;
37231;SDS011;23125;48.156;15.954;2023-08-12T09:09:04;1.50;;;1.30;;
37231;SDS011;23125;48.156;15.954;2023-08-12T09:11:35;8.07;;;2.63;;
37231;SDS011;23125;48.156;15.954;2023-08-12T09:14:05;2.10;;;1.52;;
37231;SDS011;23125;48.156;15.954;2023-08-12T09:16:31;1.70;;;1.17;;
37231;SDS011;23125;48.156;15.954;2023-08-12T09:18:58;1.20;;;1.00;;
37231;SDS011;23125;48.156;15.954;2023-08-12T09:21:24;1.88;;;1.23;;
37231;SDS011;23125;48.156;15.954;2023-08-12T09:23:50;1.50;;;1.33;;
37231;SDS011;23125;48.156;15.954;2023-08-12T09:26:17;1.70;;;1.40;;
37231;SDS011;23125;48.156;15.954;2023-08-12T09:28:45;2.60;;;1.48;;
37231;SDS011;23125;48.156;15.954;2023-08-12T09:31:21;1.77;;;1.50;;
37231;SDS011;23125;48.156;15.954;2023-08-12T09:33:54;1.98;;;1.75;;
37231;SDS011;23125;48.156;15.954;2023-08-12T09:36:30;2.15;;;1.60;;
37231;SDS011;23125;48.156;15.954;2023-08-12T09:38:56;1.88;;;1.50;;
37231;SDS011;23125;48.156;15.954;2023-08-12T09:41:24;1.30;;;1.17;;
37231;SDS011;23125;48.156;15.954;2023-08-12T09:43:51;1.90;;;1.70;;
37231;SDS011;23125;48.156;15.954;2023-08-12T09:48:49;1.98;;;1.40;;
37231;SDS011;23125;48.156;15.954;2023-08-12T09:53:42;3.15;;;1.88;;
37231;SDS011;23125;48.156;15.954;2023-08-12T09:56:10;2.33;;;1.50;;
37231;SDS011;23125;48.156;15.954;2023-08-12T10:01:04;3.60;;;2.38;;
37231;SDS011;23125;48.156;15.954;2023-08-12T10:03:33;2.03;;;1.48;;
37231;SDS011;23125;48.156;15.954;2023-08-12T10:06:00;2.95;;;1.80;;
37231;SDS011;23125;48.156;15.954;2023-08-12T10:08:28;2.60;;;1.60;;
37231;SDS011;23125;48.156;15.954;2023-08-12T10:10:55;2.63;;;1.83;;
37231;SDS011;23125;48.156;15.954;2023-08-12T10:13:21;1.60;;;1.50;;
37231;SDS011;23125;48.156;15.954;2023-08-12T10:15:48;2.58;;;1.67;;
37231;SDS011;23125;48.156;15.954;2023-08-12T10:18:18;3.03;;;1.85;;
37231;SDS011;23125;48.156;15.954;2023-08-12T10:20:45;2.05;;;1.58;;
37231;SDS011;23125;48.156;15.954;2023-08-12T10:23:14;1.70;;;1.60;;
37231;SDS011;23125;48.156;15.954;2023-08-12T10:25:43;1.90;;;1.70;;
37231;SDS011;23125;48.156;15.954;2023-08-12T10:28:10;2.50;;;1.80;;
37231;SDS011;23125;48.156;15.954;2023-08-12T10:30:39;2.17;;;1.98;;
37231;SDS011;23125;48.156;15.954;2023-08-12T10:33:08;3.25;;;2.00;;
37231;SDS011;23125;48.156;15.954;2023-08-12T10:35:42;3.47;;;2.03;;
37231;SDS011;23125;48.156;15.954;2023-08-12T10:38:10;2.15;;;1.55;;
37231;SDS011;23125;48.156;15.954;2023-08-12T10:40:38;4.10;;;1.75;;
37231;SDS011;23125;48.156;15.954;2023-08-12T10:43:04;4.28;;;2.10;;
37231;SDS011;23125;48.156;15.954;2023-08-12T10:45:43;4.38;;;1.88;;
37231;SDS011;23125;48.156;15.954;2023-08-12T10:48:15;2.10;;;1.90;;
37231;SDS011;23125;48.156;15.954;2023-08-12T10:50:44;2.40;;;2.20;;
37231;SDS011;23125;48.156;15.954;2023-08-12T10:53:24;2.92;;;1.80;;
37231;SDS011;23125;48.156;15.954;2023-08-12T10:55:56;2.00;;;1.77;;
37231;SDS011;23125;48.156;15.954;2023-08-12T10:58:27;3.38;;;1.92;;
37231;SDS011;23125;48.156;15.954;2023-08-12T11:00:56;1.70;;;1.60;;
37231;SDS011;23125;48.156;15.954;2023-08-12T11:03:23;3.40;;;2.20;;
37231;SDS011;23125;48.156;15.954;2023-08-12T11:05:49;2.92;;;1.75;;
37231;SDS011;23125;48.156;15.954;2023-08-12T11:08:16;3.13;;;1.98;;
37231;SDS011;23125;48.156;15.954;2023-08-12T11:10:41;3.83;;;1.95;;
37231;SDS011;23125;48.156;15.954;2023-08-12T11:13:08;2.97;;;1.80;;
37231;SDS011;23125;48.156;15.954;2023-08-12T11:15:41;2.47;;;1.65;;
37231;SDS011;23125;48.156;15.954;2023-08-12T11:18:15;2.45;;;2.20;;
37231;SDS011;23125;48.156;15.954;2023-08-12T11:20:43;2.20;;;2.00;;
37231;SDS011;23125;48.156;15.954;2023-08-12T11:23:10;2.80;;;1.92;;
37231;SDS011;23125;48.156;15.954;2023-08-12T11:25:37;2.83;;;1.90;;
37231;SDS011;23125;48.156;15.954;2023-08-12T11:28:04;2.40;;;2.17;;
37231;SDS011;23125;48.156;15.954;2023-08-12T11:30:31;2.65;;;1.90;;
37231;SDS011;23125;48.156;15.954;2023-08-12T11:32:58;3.35;;;2.05;;
37231;SDS011;23125;48.156;15.954;2023-08-12T11:35:25;2.47;;;1.90;;
37231;SDS011;23125;48.156;15.954;2023-08-12T11:37:55;2.50;;;2.30;;
37231;SDS011;23125;48.156;15.954;2023-08-12T11:40:22;2.45;;;2.17;;
37231;SDS011;23125;48.156;15.954;2023-08-12T11:42:50;1.80;;;1.70;;
37231;SDS011;23125;48.156;15.954;2023-08-12T11:45:19;2.22;;;2.03;;
37231;SDS011;23125;48.156;15.954;2023-08-12T11:47:46;2.30;;;2.10;;
37231;SDS011;23125;48.156;15.954;2023-08-12T11:50:18;2.78;;;2.00;;
37231;SDS011;23125;48.156;15.954;2023-08-12T11:52:46;2.50;;;2.20;;
37231;SDS011;23125;48.156;15.954;2023-08-12T11:55:13;2.38;;;2.15;;
37231;SDS011;23125;48.156;15.954;2023-08-12T11:57:40;2.42;;;2.05;;
37231;SDS011;23125;48.156;15.954;2023-08-12T12:00:07;2.80;;;2.10;;
37231;SDS011;23125;48.156;15.954;2023-08-12T12:02:48;2.22;;;1.95;;
37231;SDS011;23125;48.156;15.954;2023-08-12T12:05:16;2.97;;;2.03;;
37231;SDS011;23125;48.156;15.954;2023-08-12T12:07:43;2.38;;;1.90;;
37231;SDS011;23125;48.156;15.954;2023-08-12T12:10:13;2.75;;;1.80;;
37231;SDS011;23125;48.156;15.954;2023-08-12T12:12:40;2.78;;;1.90;;
37231;SDS011;23125;48.156;15.954;2023-08-12T12:15:06;2.25;;;1.52;;
37231;SDS011;23125;48.156;15.954;2023-08-12T12:17:33;1.85;;;1.75;;
37231;SDS011;23125;48.156;15.954;2023-08-12T12:20:06;2.30;;;1.75;;
37231;SDS011;23125;48.156;15.954;2023-08-12T12:22:36;2.47;;;2.17;;
37231;SDS011;23125;48.156;15.954;2023-08-12T12:25:07;1.85;;;1.42;;
37231;SDS011;23125;48.156;15.954;2023-08-12T12:27:34;2.10;;;1.67;;
37231;SDS011;23125;48.156;15.954;2023-08-12T12:30:02;1.95;;;1.42;;
37231;SDS011;23125;48.156;15.954;2023-08-12T12:32:28;4.65;;;2.05;;
37231;SDS011;23125;48.156;15.954;2023-08-12T12:34:54;2.65;;;1.70;;
37231;SDS011;23125;48.156;15.954;2023-08-12T12:37:20;2.00;;;1.40;;
37231;SDS011;23125;48.156;15.954;2023-08-12T12:39:46;3.25;;;1.70;;
37231;SDS011;23125;48.156;15.954;2023-08-12T12:42:12;2.30;;;1.45;;
37231;SDS011;23125;48.156;15.954;2023-08-12T12:44:38;1.40;;;1.20;;
37231;SDS011;23125;48.156;15.954;2023-08-12T12:47:04;3.00;;;1.52;;
37231;SDS011;23125;48.156;15.954;2023-08-12T12:49:31;1.58;;;1.40;;
37231;SDS011;23125;48.156;15.954;2023-08-12T12:51:56;3.00;;;1.48;;
37231;SDS011;23125;48.156;15.954;2023-08-12T12:54:22;2.38;;;1.58;;
37231;SDS011;23125;48.156;15.954;2023-08-12T12:56:48;2.28;;;1.58;;
37231;SDS011;23125;48.156;15.954;2023-08-12T12:59:14;1.60;;;1.50;;
37231;SDS011;23125;48.156;15.954;2023-08-12T13:01:40;1.50;;;1.40;;
37231;SDS011;23125;48.156;15.954;2023-08-12T13:04:06;1.55;;;1.40;;
37231;SDS011;23125;48.156;15.954;2023-08-12T13:06:33;2.30;;;1.60;;
37231;SDS011;23125;48.156;15.954;2023-08-12T13:09:00;3.65;;;1.50;;
37231;SDS011;23125;48.156;15.954;2023-08-12T13:11:26;2.55;;;1.17;;
37231;SDS011;23125;48.156;15.954;2023-08-12T13:13:53;2.33;;;1.80;;
37231;SDS011;23125;48.156;15.954;2023-08-12T13:16:20;2.42;;;1.27;;
37231;SDS011;23125;48.156;15.954;2023-08-12T13:18:46;2.40;;;1.48;;
37231;SDS011;23125;48.156;15.954;2023-08-12T13:21:12;1.50;;;1.20;;
37231;SDS011;23125;48.156;15.954;2023-08-12T13:23:37;2.10;;;1.33;;
37231;SDS011;23125;48.156;15.954;2023-08-12T13:26:03;2.30;;;1.40;;
37231;SDS011;23125;48.156;15.954;2023-08-12T13:28:30;2.30;;;1.50;;
37231;SDS011;23125;48.156;15.954;2023-08-12T13:30:56;1.98;;;1.38;;
37231;SDS011;23125;48.156;15.954;2023-08-12T13:33:22;1.70;;;1.40;;
37231;SDS011;23125;48.156;15.954;2023-08-12T13:35:47;1.55;;;1.30;;
37231;SDS011;23125;48.156;15.954;2023-08-12T13:38:14;1.52;;;1.33;;
37231;SDS011;23125;48.156;15.954;2023-08-12T13:40:40;1.95;;;1.58;;
37231;SDS011;23125;48.156;15.954;2023-08-12T13:43:05;1.95;;;1.35;;
37231;SDS011;23125;48.156;15.954;2023-08-12T13:45:31;1.50;;;1.10;;
37231;SDS011;23125;48.156;15.954;2023-08-12T13:47:57;2.00;;;1.70;;
37231;SDS011;23125;48.156;15.954;2023-08-12T13:50:23;2.28;;;1.60;;
37231;SDS011;23125;48.156;15.954;2023-08-12T13:52:49;6.32;;;2.03;;
37231;SDS011;23125;48.156;15.954;2023-08-12T13:55:17;2.88;;;1.48;;
37231;SDS011;23125;48.156;15.954;2023-08-12T13:57:43;2.35;;;1.52;;
37231;SDS011;23125;48.156;15.954;2023-08-12T14:00:09;2.05;;;1.60;;
37231;SDS011;23125;48.156;15.954;2023-08-12T14:02:38;1.67;;;1.40;;
37231;SDS011;23125;48.156;15.954;2023-08-12T14:05:05;1.70;;;1.52;;
37231;SDS011;23125;48.156;15.954;2023-08-12T14:07:32;1.95;;;1.58;;
37231;SDS011;23125;48.156;15.954;2023-08-12T14:09:58;3.45;;;1.77;;
37231;SDS011;23125;48.156;15.954;2023-08-12T14:12:24;1.85;;;1.50;;
37231;SDS011;23125;48.156;15.954;2023-08-12T14:14:50;2.00;;;1.42;;
37231;SDS011;23125;48.156;15.954;2023-08-12T14:17:16;2.60;;;1.40;;
37231;SDS011;23125;48.156;15.954;2023-08-12T14:19:44;2.05;;;1.30;;
37231;SDS011;23125;48.156;15.954;2023-08-12T14:22:13;2.33;;;1.60;;
37231;SDS011;23125;48.156;15.954;2023-08-12T14:24:39;2.67;;;1.55;;
37231;SDS011;23125;48.156;15.954;2023-08-12T14:27:05;1.80;;;1.40;;
37231;SDS011;23125;48.156;15.954;2023-08-12T14:29:31;2.33;;;1.67;;
37231;SDS011;23125;48.156;15.954;2023-08-12T14:31:57;1.60;;;1.33;;
37231;SDS011;23125;48.156;15.954;2023-08-12T14:34:23;2.03;;;1.75;;
37231;SDS011;23125;48.156;15.954;2023-08-12T14:36:49;2.28;;;1.30;;
37231;SDS011;23125;48.156;15.954;2023-08-12T14:39:15;1.92;;;1.30;;
37231;SDS011;23125;48.156;15.954;2023-08-12T14:41:41;2.83;;;1.60;;
37231;SDS011;23125;48.156;15.954;2023-08-12T14:44:07;2.75;;;1.45;;